createdAt,value
2018-10-06T00:02:51.494Z,13.37
2018-10-06T00:05:56.842Z,13.33
2018-10-06T00:09:02.219Z,13.30
2018-10-06T00:12:07.908Z,13.32
2018-10-06T00:15:13.306Z,13.33
2018-10-06T00:18:18.694Z,13.33
2018-10-06T00:21:24.050Z,13.21
2018-10-06T00:24:29.442Z,13.21
2018-10-06T00:27:34.826Z,13.22
2018-10-06T00:30:40.198Z,13.19
2018-10-06T00:33:45.621Z,13.16
2018-10-06T00:36:50.989Z,13.13
2018-10-06T00:39:56.372Z,13.16
2018-10-06T00:43:02.389Z,13.15
2018-10-06T00:46:08.133Z,13.13
2018-10-06T00:49:13.511Z,13.11
2018-10-06T00:52:18.872Z,13.08
2018-10-06T00:55:24.256Z,13.01
2018-10-06T00:58:29.638Z,13.00
2018-10-06T01:01:34.999Z,13.00
2018-10-06T01:04:40.382Z,12.98
2018-10-06T01:07:45.762Z,12.97
2018-10-06T01:10:51.313Z,12.93
2018-10-06T01:13:56.794Z,12.90
2018-10-06T01:17:02.166Z,12.87
2018-10-06T01:20:07.893Z,12.87
2018-10-06T01:23:13.274Z,12.87
2018-10-06T01:26:18.650Z,12.83
2018-10-06T01:29:24.038Z,12.77
2018-10-06T01:32:29.398Z,12.70
2018-10-06T01:35:35.183Z,12.61
2018-10-06T01:38:40.565Z,12.57
2018-10-06T01:41:45.918Z,12.56
2018-10-06T01:44:51.303Z,12.52
2018-10-06T01:47:56.664Z,12.50
2018-10-06T01:51:02.147Z,12.46
2018-10-06T01:54:08.004Z,12.45
2018-10-06T01:57:13.361Z,12.44
2018-10-06T02:00:18.742Z,12.47
2018-10-06T02:03:24.226Z,12.45
2018-10-06T02:06:30.671Z,12.44
2018-10-06T02:09:36.383Z,12.43
2018-10-06T02:12:41.741Z,12.44
2018-10-06T02:15:47.168Z,12.41
2018-10-06T02:18:52.550Z,12.37
2018-10-06T02:21:57.954Z,12.36
2018-10-06T02:25:03.388Z,12.32
2018-10-06T02:28:09.282Z,12.24
2018-10-06T02:31:14.716Z,12.17
2018-10-06T02:34:20.119Z,12.11
2018-10-06T02:37:25.470Z,12.08
2018-10-06T02:40:30.868Z,11.97
2018-10-06T02:43:36.247Z,12.00
2018-10-06T02:46:41.634Z,11.99
2018-10-06T02:49:47.190Z,11.95
2018-10-06T02:52:52.742Z,11.92
2018-10-06T02:55:58.146Z,11.88
2018-10-06T02:59:03.544Z,11.89
2018-10-06T03:02:09.613Z,11.92
2018-10-06T03:05:15.007Z,11.94
2018-10-06T03:08:20.358Z,11.95
2018-10-06T03:11:25.751Z,11.93
2018-10-06T03:14:31.166Z,11.91
2018-10-06T03:17:36.527Z,11.83
2018-10-06T03:20:41.915Z,11.82
2018-10-06T03:23:47.299Z,11.83
2018-10-06T03:26:52.730Z,11.85
2018-10-06T03:29:58.117Z,11.83
2018-10-06T03:33:03.518Z,11.65
2018-10-06T03:36:09.590Z,11.66
2018-10-06T03:39:14.945Z,11.61
2018-10-06T03:42:20.340Z,11.63
2018-10-06T03:45:25.730Z,11.59
2018-10-06T03:48:31.094Z,11.49
2018-10-06T03:51:37.038Z,11.41
2018-10-06T03:54:42.422Z,11.36
2018-10-06T03:57:48.419Z,11.38
2018-10-06T04:00:53.799Z,11.37
2018-10-06T04:03:59.178Z,11.37
2018-10-06T04:07:04.575Z,11.33
2018-10-06T04:10:09.961Z,11.34
2018-10-06T04:13:15.322Z,11.35
2018-10-06T04:16:20.727Z,11.33
2018-10-06T04:19:26.133Z,11.30
2018-10-06T04:22:31.926Z,11.29
2018-10-06T04:25:37.330Z,11.24
2018-10-06T04:28:42.698Z,11.23
2018-10-06T04:31:48.074Z,11.22
2018-10-06T04:34:53.466Z,11.26
2018-10-06T04:37:58.978Z,11.24
2018-10-06T04:41:04.354Z,11.22
2018-10-06T04:44:10.159Z,11.23
2018-10-06T04:47:15.534Z,11.22
2018-10-06T04:50:20.922Z,11.22
2018-10-06T04:53:26.310Z,11.22
2018-10-06T04:56:31.685Z,11.15
2018-10-06T04:59:37.043Z,11.09
2018-10-06T05:02:42.429Z,11.03
2018-10-06T05:05:48.161Z,11.00
2018-10-06T05:08:53.530Z,10.99
2018-10-06T05:11:58.921Z,10.82
2018-10-06T05:15:04.302Z,10.75
2018-10-06T05:18:09.686Z,10.78
2018-10-06T05:21:15.102Z,10.79
2018-10-06T05:24:20.463Z,10.80
2018-10-06T05:27:25.842Z,10.81
2018-10-06T05:30:31.203Z,10.72
2018-10-06T05:33:36.632Z,10.70
2018-10-06T05:36:42.042Z,10.76
2018-10-06T05:39:47.405Z,10.79
2018-10-06T05:42:58.994Z,10.74
2018-10-06T05:46:11.991Z,10.74
2018-10-06T05:49:19.651Z,10.75
2018-10-06T05:52:25.030Z,10.81
2018-10-06T05:55:30.502Z,10.88
2018-10-06T05:58:35.892Z,10.91
2018-10-06T06:01:41.288Z,10.95
2018-10-06T06:04:46.793Z,10.98
2018-10-06T06:07:52.374Z,11.01
2018-10-06T06:10:57.856Z,10.89
2018-10-06T06:14:03.286Z,10.94
2018-10-06T06:17:09.057Z,11.04
2018-10-06T06:20:14.516Z,11.07
2018-10-06T06:23:19.902Z,10.93
2018-10-06T06:26:25.446Z,11.03
2018-10-06T06:29:30.826Z,10.97
2018-10-06T06:32:36.203Z,11.09
2018-10-06T06:35:41.610Z,11.01
2018-10-06T06:38:46.990Z,11.13
2018-10-06T06:41:52.370Z,11.16
2018-10-06T06:44:57.734Z,11.18
2018-10-06T06:48:03.156Z,11.21
2018-10-06T06:51:08.526Z,11.29
2018-10-06T06:54:13.915Z,11.36
2018-10-06T06:57:19.298Z,11.44
2018-10-06T07:00:24.687Z,11.45
2018-10-06T07:03:30.089Z,11.53
2018-10-06T07:06:35.486Z,11.59
2018-10-06T07:09:40.871Z,11.63
2018-10-06T07:12:46.338Z,11.73
2018-10-06T07:15:51.862Z,11.73
2018-10-06T07:18:57.251Z,11.84
2018-10-06T07:22:02.669Z,11.94
2018-10-06T07:25:08.238Z,11.87
2018-10-06T07:28:14.262Z,12.00
2018-10-06T07:31:19.638Z,12.40
2018-10-06T07:34:26.001Z,12.66
2018-10-06T07:37:31.385Z,12.81
2018-10-06T07:40:36.913Z,12.70
2018-10-06T07:43:42.356Z,12.78
2018-10-06T07:46:48.071Z,12.76
2018-10-06T07:49:53.501Z,12.64
2018-10-06T07:52:59.112Z,12.67
2018-10-06T07:56:04.711Z,12.83
2018-10-06T07:59:10.591Z,12.95
2018-10-06T08:02:16.222Z,13.10
2018-10-06T08:05:21.618Z,13.20
2018-10-06T08:08:27.274Z,13.31
2018-10-06T08:11:32.642Z,13.40
2018-10-06T08:14:38.038Z,13.56
2018-10-06T08:17:44.599Z,13.67
2018-10-06T08:20:50.162Z,13.79
2018-10-06T08:23:55.614Z,14.29
2018-10-06T08:27:01.010Z,14.97
2018-10-06T08:30:06.451Z,15.46
2018-10-06T08:33:11.880Z,16.13
2018-10-06T08:36:17.862Z,16.45
2018-10-06T08:39:23.304Z,16.49
2018-10-06T08:42:29.358Z,16.45
2018-10-06T08:45:34.749Z,16.31
2018-10-06T08:48:40.732Z,16.25
2018-10-06T08:51:46.103Z,16.16
2018-10-06T08:54:51.542Z,16.12
2018-10-06T08:57:56.966Z,16.16
2018-10-06T09:01:02.515Z,16.11
2018-10-06T09:04:08.227Z,16.14
2018-10-06T09:07:13.771Z,16.23
2018-10-06T09:10:19.193Z,16.25
2018-10-06T09:13:24.667Z,16.32
2018-10-06T09:16:30.031Z,16.41
2018-10-06T09:19:35.473Z,16.46
2018-10-06T09:22:40.919Z,16.46
2018-10-06T09:25:46.311Z,16.51
2018-10-06T09:28:51.704Z,16.57
2018-10-06T09:31:57.191Z,16.69
2018-10-06T09:35:02.606Z,16.78
2018-10-06T09:38:07.982Z,16.87
2018-10-06T09:41:13.834Z,16.89
2018-10-06T09:44:19.230Z,16.91
2018-10-06T09:47:24.594Z,16.98
2018-10-06T09:50:29.986Z,17.02
2018-10-06T09:53:35.396Z,17.12
2018-10-06T09:56:41.386Z,17.23
2018-10-06T09:59:47.046Z,17.44
2018-10-06T10:02:57.778Z,17.63
2018-10-06T10:06:03.178Z,17.76
2018-10-06T10:09:11.650Z,17.79
2018-10-06T10:12:17.736Z,17.90
2018-10-06T10:15:24.132Z,18.03
2018-10-06T10:18:29.828Z,17.98
2018-10-06T10:21:35.526Z,18.15
2018-10-06T10:24:41.041Z,18.19
2018-10-06T10:27:46.429Z,18.19
2018-10-06T10:30:52.129Z,18.20
2018-10-06T10:33:57.598Z,18.24
2018-10-06T10:37:02.999Z,18.38
2018-10-06T10:40:08.616Z,18.42
2018-10-06T10:43:13.992Z,18.54
2018-10-06T10:46:19.733Z,18.61
2018-10-06T10:49:25.129Z,18.78
2018-10-06T10:52:30.702Z,19.02
2018-10-06T10:55:37.124Z,19.28
2018-10-06T10:58:44.907Z,19.43
2018-10-06T11:01:51.486Z,19.73
2018-10-06T11:04:56.996Z,19.89
2018-10-06T11:08:02.529Z,20.05
2018-10-06T11:11:08.265Z,20.20
2018-10-06T11:14:13.670Z,20.45
2018-10-06T11:17:19.150Z,20.78
2018-10-06T11:20:24.702Z,21.25
2018-10-06T11:23:31.558Z,21.74
2018-10-06T11:26:36.977Z,21.98
2018-10-06T11:29:42.354Z,22.23
2018-10-06T11:32:48.206Z,22.30
2018-10-06T11:35:53.615Z,22.36
2018-10-06T11:38:58.982Z,22.60
2018-10-06T11:42:04.498Z,23.11
2018-10-06T11:45:09.906Z,23.88
2018-10-06T11:48:17.439Z,24.43
2018-10-06T11:51:22.842Z,25.25
2018-10-06T11:54:28.245Z,26.12
2018-10-06T11:57:33.658Z,26.66
2018-10-06T12:00:39.094Z,27.01
2018-10-06T12:03:44.794Z,27.91
2018-10-06T12:06:50.345Z,28.43
2018-10-06T12:09:56.023Z,28.98
2018-10-06T12:13:01.770Z,29.37
2018-10-06T12:16:07.226Z,29.88
2018-10-06T12:19:12.590Z,30.19
2018-10-06T12:22:17.974Z,29.99
2018-10-06T12:25:23.342Z,30.76
2018-10-06T12:28:28.737Z,31.24
2018-10-06T12:31:34.140Z,31.19
2018-10-06T12:34:39.688Z,31.37
2018-10-06T12:37:45.150Z,31.66
2018-10-06T12:40:50.546Z,31.72
2018-10-06T12:43:55.985Z,32.01
2018-10-06T12:47:01.457Z,31.44
2018-10-06T12:50:06.873Z,29.94
2018-10-06T12:53:15.067Z,31.31
2018-10-06T12:56:22.689Z,32.13
2018-10-06T12:59:28.219Z,31.31
2018-10-06T13:02:33.695Z,31.92
2018-10-06T13:05:39.150Z,32.18
2018-10-06T13:08:44.531Z,32.25
2018-10-06T13:11:51.397Z,32.25
2018-10-06T13:14:59.269Z,30.74
2018-10-06T13:18:04.801Z,31.57
2018-10-06T13:21:10.353Z,31.35
2018-10-06T13:24:15.859Z,31.36
2018-10-06T13:27:21.492Z,30.91
2018-10-06T13:30:27.282Z,30.21
2018-10-06T13:33:33.411Z,29.12
2018-10-06T13:36:38.799Z,29.15
2018-10-06T13:39:44.215Z,28.77
2018-10-06T13:42:50.168Z,28.36
2018-10-06T13:45:55.579Z,27.86
2018-10-06T13:49:00.971Z,27.02
2018-10-06T13:52:06.491Z,26.88
2018-10-06T13:55:12.291Z,26.67
2018-10-06T13:58:17.731Z,26.29
2018-10-06T14:01:23.148Z,25.57
2018-10-06T14:04:29.014Z,25.33
2018-10-06T14:07:36.586Z,25.31
2018-10-06T14:10:43.145Z,25.19
2018-10-06T14:13:48.951Z,25.03
2018-10-06T14:16:54.469Z,24.92
2018-10-06T14:19:59.862Z,24.72
2018-10-06T14:23:05.274Z,24.44
2018-10-06T14:26:10.800Z,23.81
2018-10-06T14:29:16.389Z,23.78
2018-10-06T14:32:21.848Z,23.67
2018-10-06T14:35:27.521Z,23.48
2018-10-06T14:38:32.997Z,22.89
2018-10-06T14:41:38.509Z,22.88
2018-10-06T14:44:44.147Z,22.74
2018-10-06T14:47:52.417Z,22.79
2018-10-06T14:50:57.825Z,22.80
2018-10-06T14:54:03.269Z,22.82
2018-10-06T14:57:08.750Z,22.81
2018-10-06T15:00:14.515Z,22.78
2018-10-06T15:03:20.025Z,22.71
2018-10-06T15:06:25.422Z,22.46
2018-10-06T15:09:30.815Z,22.15
2018-10-06T15:12:36.645Z,22.25
2018-10-06T15:15:42.122Z,22.27
2018-10-06T15:18:47.527Z,22.24
2018-10-06T15:21:52.963Z,22.17
2018-10-06T15:24:58.587Z,21.83
2018-10-06T15:28:03.991Z,21.95
2018-10-06T15:31:09.635Z,21.77
2018-10-06T15:34:15.126Z,21.83
2018-10-06T15:37:20.522Z,21.90
2018-10-06T15:40:26.041Z,21.84
2018-10-06T15:43:31.549Z,21.82
2018-10-06T15:46:37.323Z,21.79
2018-10-06T15:49:42.725Z,21.73
2018-10-06T15:52:49.010Z,21.67
2018-10-06T15:55:55.057Z,21.61
2018-10-06T15:59:00.487Z,21.55
2018-10-06T16:02:06.006Z,21.51
2018-10-06T16:05:11.636Z,21.40
2018-10-06T16:08:17.009Z,21.30
2018-10-06T16:11:22.459Z,21.20
2018-10-06T16:14:27.870Z,21.13
2018-10-06T16:17:33.295Z,21.03
2018-10-06T16:20:38.672Z,20.93
2018-10-06T16:23:44.138Z,20.86
2018-10-06T16:26:49.535Z,20.81
2018-10-06T16:29:54.918Z,20.74
2018-10-06T16:33:01.493Z,20.66
2018-10-06T16:36:07.103Z,20.54
2018-10-06T16:39:12.542Z,20.43
2018-10-06T16:42:18.166Z,20.31
2018-10-06T16:45:24.176Z,20.17
2018-10-06T16:48:30.447Z,19.81
2018-10-06T16:51:35.854Z,19.74
2018-10-06T16:54:41.425Z,19.74
2018-10-06T16:57:47.503Z,19.63
2018-10-06T17:00:52.909Z,19.64
2018-10-06T17:03:58.401Z,19.53
2018-10-06T17:07:03.810Z,19.49
2018-10-06T17:10:09.289Z,19.43
2018-10-06T17:13:15.023Z,19.39
2018-10-06T17:16:20.410Z,19.32
2018-10-06T17:19:25.827Z,19.24
2018-10-06T17:22:31.286Z,19.11
2018-10-06T17:25:36.818Z,19.06
2018-10-06T17:28:42.262Z,18.94
2018-10-06T17:31:47.664Z,18.74
2018-10-06T17:34:53.162Z,18.69
2018-10-06T17:37:58.595Z,18.67
2018-10-06T17:41:04.147Z,18.48
2018-10-06T17:44:09.646Z,18.34
2018-10-06T17:47:15.062Z,18.35
2018-10-06T17:50:20.546Z,18.19
2018-10-06T17:53:26.138Z,18.24
2018-10-06T17:56:31.734Z,18.25
2018-10-06T17:59:37.155Z,18.24
2018-10-06T18:02:42.546Z,18.26
2018-10-06T18:05:47.993Z,18.26
2018-10-06T18:08:53.412Z,18.15
2018-10-06T18:11:58.875Z,18.13
2018-10-06T18:15:04.473Z,18.11
2018-10-06T18:18:09.884Z,18.05
2018-10-06T18:21:15.446Z,17.84
2018-10-06T18:24:21.050Z,17.89
2018-10-06T18:27:27.059Z,17.91
2018-10-06T18:30:32.515Z,17.89
2018-10-06T18:33:37.981Z,17.92
2018-10-06T18:36:43.384Z,17.92
2018-10-06T18:39:49.028Z,17.71
2018-10-06T18:42:54.710Z,17.73
2018-10-06T18:46:00.446Z,17.66
2018-10-06T18:49:05.907Z,17.52
2018-10-06T18:52:11.598Z,17.53
2018-10-06T18:55:17.286Z,17.47
2018-10-06T18:58:22.705Z,17.46
2018-10-06T19:01:28.106Z,17.41
2018-10-06T19:04:33.598Z,17.38
2018-10-06T19:07:39.030Z,17.22
2018-10-06T19:10:44.446Z,16.77
2018-10-06T19:13:49.946Z,16.90
2018-10-06T19:16:55.349Z,16.92
2018-10-06T19:20:00.730Z,16.71
2018-10-06T19:23:06.209Z,16.59
2018-10-06T19:26:11.623Z,16.67
2018-10-06T19:29:17.486Z,16.56
2018-10-06T19:32:22.943Z,16.63
2018-10-06T19:35:28.387Z,16.56
2018-10-06T19:38:34.087Z,16.43
2018-10-06T19:41:39.906Z,16.50
2018-10-06T19:44:45.359Z,16.53
2018-10-06T19:47:50.761Z,16.54
2018-10-06T19:50:56.196Z,16.55
2018-10-06T19:54:01.706Z,16.53
2018-10-06T19:57:07.130Z,16.48
2018-10-06T20:00:12.688Z,16.46
2018-10-06T20:03:18.169Z,16.42
2018-10-06T20:06:23.723Z,16.38
2018-10-06T20:09:29.111Z,16.32
2018-10-06T20:12:34.581Z,16.31
2018-10-06T20:15:40.139Z,16.27
2018-10-06T20:18:45.545Z,16.26
2018-10-06T20:21:50.933Z,16.24
2018-10-06T20:24:56.374Z,16.18
2018-10-06T20:28:01.975Z,16.17
2018-10-06T20:31:07.451Z,16.14
2018-10-06T20:34:13.646Z,16.12
2018-10-06T20:37:19.282Z,16.09
2018-10-06T20:40:24.684Z,16.07
2018-10-06T20:43:30.335Z,15.98
2018-10-06T20:46:35.754Z,15.88
2018-10-06T20:49:41.137Z,15.77
2018-10-06T20:52:46.542Z,15.78
2018-10-06T20:55:51.930Z,15.76
2018-10-06T20:58:57.342Z,15.77
2018-10-06T21:02:02.951Z,15.77
2018-10-06T21:05:08.666Z,15.75
2018-10-06T21:08:14.063Z,15.68
2018-10-06T21:11:19.475Z,15.67
2018-10-06T21:14:24.930Z,15.64
2018-10-06T21:17:30.350Z,15.64
2018-10-06T21:20:35.904Z,15.65
2018-10-06T21:23:41.373Z,15.65
2018-10-06T21:26:47.006Z,15.64
2018-10-06T21:29:52.770Z,15.62
2018-10-06T21:32:58.293Z,15.64
2018-10-06T21:36:03.754Z,15.64
2018-10-06T21:39:10.571Z,15.57
2018-10-06T21:42:15.978Z,15.53
2018-10-06T21:45:21.426Z,15.46
2018-10-06T21:48:26.851Z,15.46
2018-10-06T21:51:32.322Z,15.45
2018-10-06T21:54:37.802Z,15.56
2018-10-06T21:57:44.175Z,15.65
2018-10-06T22:00:54.887Z,15.71
2018-10-06T22:04:00.463Z,15.67
2018-10-06T22:07:06.314Z,15.74
2018-10-06T22:10:12.098Z,15.77
2018-10-06T22:13:17.786Z,15.75
2018-10-06T22:16:23.818Z,15.81
2018-10-06T22:19:29.213Z,15.83
2018-10-06T22:22:34.647Z,15.84
2018-10-06T22:25:40.235Z,15.85
2018-10-06T22:28:45.659Z,15.82
2018-10-06T22:31:51.050Z,15.88
2018-10-06T22:34:56.530Z,15.90
2018-10-06T22:38:02.479Z,15.84
2018-10-06T22:41:08.369Z,15.84
2018-10-06T22:44:13.913Z,15.77
2018-10-06T22:47:19.323Z,15.73
2018-10-06T22:50:24.893Z,15.80
2018-10-06T22:53:30.380Z,15.73
2018-10-06T22:56:35.802Z,15.85
2018-10-06T22:59:41.226Z,15.89
2018-10-06T23:02:46.625Z,15.92
2018-10-06T23:05:52.046Z,15.89
2018-10-06T23:08:57.471Z,15.94
2018-10-06T23:12:02.874Z,15.95
2018-10-06T23:15:08.414Z,15.89
2018-10-06T23:18:13.855Z,15.93
2018-10-06T23:21:19.266Z,15.89
2018-10-06T23:24:24.721Z,15.88
2018-10-06T23:27:30.118Z,15.95
2018-10-06T23:30:35.755Z,15.85
2018-10-06T23:33:41.336Z,15.93
2018-10-06T23:36:46.884Z,15.94
2018-10-06T23:39:52.285Z,15.96
2018-10-06T23:42:57.738Z,15.90
2018-10-06T23:46:03.184Z,15.79
2018-10-06T23:49:08.609Z,15.69
2018-10-06T23:52:14.014Z,15.60
2018-10-06T23:55:19.869Z,15.62
2018-10-06T23:58:25.323Z,15.69
